GB-0581 weather

Winkwood Farm Airstrip
England, United Kingdom

Public forecast

Using degrees Celsius for public forecast. Weather courtesy of forecast.io.

METAR (pilot weather report)

Closest report is Farnborough Airport, 8.9 nm (16.5 km) NNW. Retrieved 2019/04/23 17:20 UTC (28 minutes ago):

EGLF 231720Z AUTO 06009KT 9999 NCD 17/07 Q0995

TAF (pilot weather forecast)

Forecast is more than 12 hours old.

Closest forecast is Farnborough Airport, 8.9 nm (16.5 km) NNW. Retrieved 2016/04/18 18:00 UTC (3 years ago):

TAF EGLF 181658Z 1818/1821 26008KT 9999 BKN040